sensor_id;sensor_type;location;lat;lon;timestamp;P1;durP1;ratioP1;P2;durP2;ratioP2
72125;SDS011;59999;51.676;22.650;2023-07-08T00:01:09;19.40;;;9.82;;
72125;SDS011;59999;51.676;22.650;2023-07-08T00:03:44;18.40;;;9.90;;
72125;SDS011;59999;51.676;22.650;2023-07-08T00:06:16;18.13;;;9.70;;
72125;SDS011;59999;51.676;22.650;2023-07-08T00:08:43;18.27;;;9.63;;
72125;SDS011;59999;51.676;22.650;2023-07-08T00:11:10;16.87;;;9.10;;
72125;SDS011;59999;51.676;22.650;2023-07-08T00:13:37;16.33;;;9.85;;
72125;SDS011;59999;51.676;22.650;2023-07-08T00:16:03;15.38;;;9.15;;
72125;SDS011;59999;51.676;22.650;2023-07-08T00:18:29;17.58;;;10.10;;
72125;SDS011;59999;51.676;22.650;2023-07-08T00:20:55;17.83;;;9.67;;
72125;SDS011;59999;51.676;22.650;2023-07-08T00:23:21;17.03;;;10.00;;
72125;SDS011;59999;51.676;22.650;2023-07-08T00:25:47;18.15;;;10.10;;
72125;SDS011;59999;51.676;22.650;2023-07-08T00:28:15;17.52;;;9.65;;
72125;SDS011;59999;51.676;22.650;2023-07-08T00:30:43;15.60;;;9.45;;
72125;SDS011;59999;51.676;22.650;2023-07-08T00:33:09;18.10;;;9.40;;
72125;SDS011;59999;51.676;22.650;2023-07-08T00:35:36;14.43;;;8.47;;
72125;SDS011;59999;51.676;22.650;2023-07-08T00:38:17;14.43;;;8.88;;
72125;SDS011;59999;51.676;22.650;2023-07-08T00:43:24;15.48;;;9.60;;
72125;SDS011;59999;51.676;22.650;2023-07-08T00:48:50;18.50;;;10.33;;
72125;SDS011;59999;51.676;22.650;2023-07-08T00:51:19;16.08;;;9.85;;
72125;SDS011;59999;51.676;22.650;2023-07-08T00:53:46;15.55;;;8.95;;
72125;SDS011;59999;51.676;22.650;2023-07-08T00:56:15;16.27;;;8.00;;
72125;SDS011;59999;51.676;22.650;2023-07-08T00:58:46;14.32;;;7.53;;
72125;SDS011;59999;51.676;22.650;2023-07-08T01:01:20;15.20;;;7.83;;
72125;SDS011;59999;51.676;22.650;2023-07-08T01:03:54;12.88;;;7.53;;
72125;SDS011;59999;51.676;22.650;2023-07-08T01:06:30;16.60;;;8.73;;
72125;SDS011;59999;51.676;22.650;2023-07-08T01:09:05;16.60;;;9.27;;
72125;SDS011;59999;51.676;22.650;2023-07-08T01:11:33;17.58;;;9.05;;
72125;SDS011;59999;51.676;22.650;2023-07-08T01:14:03;17.63;;;9.23;;
72125;SDS011;59999;51.676;22.650;2023-07-08T01:16:31;17.30;;;9.02;;
72125;SDS011;59999;51.676;22.650;2023-07-08T01:19:02;15.65;;;9.30;;
72125;SDS011;59999;51.676;22.650;2023-07-08T01:24:29;13.82;;;8.45;;
72125;SDS011;59999;51.676;22.650;2023-07-08T01:27:00;14.53;;;8.67;;
72125;SDS011;59999;51.676;22.650;2023-07-08T01:29:27;15.65;;;8.57;;
72125;SDS011;59999;51.676;22.650;2023-07-08T01:31:56;14.07;;;8.98;;
72125;SDS011;59999;51.676;22.650;2023-07-08T01:34:23;17.50;;;9.75;;
72125;SDS011;59999;51.676;22.650;2023-07-08T01:36:53;14.93;;;9.20;;
72125;SDS011;59999;51.676;22.650;2023-07-08T01:39:22;15.50;;;8.50;;
72125;SDS011;59999;51.676;22.650;2023-07-08T01:41:50;15.60;;;7.97;;
72125;SDS011;59999;51.676;22.650;2023-07-08T01:44:30;14.43;;;7.90;;
72125;SDS011;59999;51.676;22.650;2023-07-08T01:47:02;14.45;;;7.30;;
72125;SDS011;59999;51.676;22.650;2023-07-08T01:49:46;15.60;;;8.27;;
72125;SDS011;59999;51.676;22.650;2023-07-08T01:52:13;15.90;;;7.77;;
72125;SDS011;59999;51.676;22.650;2023-07-08T01:54:41;14.18;;;7.97;;
72125;SDS011;59999;51.676;22.650;2023-07-08T01:57:07;15.63;;;8.32;;
72125;SDS011;59999;51.676;22.650;2023-07-08T01:59:33;13.93;;;8.13;;
72125;SDS011;59999;51.676;22.650;2023-07-08T02:02:00;16.88;;;8.73;;
72125;SDS011;59999;51.676;22.650;2023-07-08T02:04:26;17.35;;;9.07;;
72125;SDS011;59999;51.676;22.650;2023-07-08T02:06:54;17.23;;;9.23;;
72125;SDS011;59999;51.676;22.650;2023-07-08T02:09:21;16.55;;;8.55;;
72125;SDS011;59999;51.676;22.650;2023-07-08T02:11:48;15.50;;;8.17;;
72125;SDS011;59999;51.676;22.650;2023-07-08T02:14:14;14.75;;;8.60;;
72125;SDS011;59999;51.676;22.650;2023-07-08T02:16:40;14.95;;;7.70;;
72125;SDS011;59999;51.676;22.650;2023-07-08T02:19:06;13.87;;;7.70;;
72125;SDS011;59999;51.676;22.650;2023-07-08T02:21:32;15.05;;;7.70;;
72125;SDS011;59999;51.676;22.650;2023-07-08T02:24:00;17.73;;;8.15;;
72125;SDS011;59999;51.676;22.650;2023-07-08T02:26:26;19.73;;;8.52;;
72125;SDS011;59999;51.676;22.650;2023-07-08T02:28:52;20.77;;;9.83;;
72125;SDS011;59999;51.676;22.650;2023-07-08T02:31:18;18.13;;;10.30;;
72125;SDS011;59999;51.676;22.650;2023-07-08T02:33:43;20.55;;;9.88;;
72125;SDS011;59999;51.676;22.650;2023-07-08T02:36:10;17.17;;;9.00;;
72125;SDS011;59999;51.676;22.650;2023-07-08T02:38:35;18.77;;;8.93;;
72125;SDS011;59999;51.676;22.650;2023-07-08T02:41:01;18.13;;;9.23;;
72125;SDS011;59999;51.676;22.650;2023-07-08T02:43:27;18.00;;;9.10;;
72125;SDS011;59999;51.676;22.650;2023-07-08T02:45:53;17.07;;;8.50;;
72125;SDS011;59999;51.676;22.650;2023-07-08T02:48:19;21.42;;;8.75;;
72125;SDS011;59999;51.676;22.650;2023-07-08T02:50:45;15.77;;;8.68;;
72125;SDS011;59999;51.676;22.650;2023-07-08T02:53:11;19.87;;;8.23;;
72125;SDS011;59999;51.676;22.650;2023-07-08T02:55:38;15.10;;;8.45;;
72125;SDS011;59999;51.676;22.650;2023-07-08T02:58:05;16.55;;;8.88;;
72125;SDS011;59999;51.676;22.650;2023-07-08T03:00:31;18.25;;;9.20;;
72125;SDS011;59999;51.676;22.650;2023-07-08T03:02:57;16.33;;;8.97;;
72125;SDS011;59999;51.676;22.650;2023-07-08T03:05:23;15.70;;;9.10;;
72125;SDS011;59999;51.676;22.650;2023-07-08T03:07:48;18.70;;;9.07;;
72125;SDS011;59999;51.676;22.650;2023-07-08T03:10:14;15.03;;;8.40;;
72125;SDS011;59999;51.676;22.650;2023-07-08T03:12:40;16.65;;;9.27;;
72125;SDS011;59999;51.676;22.650;2023-07-08T03:15:06;20.58;;;9.88;;
72125;SDS011;59999;51.676;22.650;2023-07-08T03:17:32;17.67;;;9.35;;
72125;SDS011;59999;51.676;22.650;2023-07-08T03:19:58;15.60;;;8.57;;
72125;SDS011;59999;51.676;22.650;2023-07-08T03:22:24;18.75;;;9.35;;
72125;SDS011;59999;51.676;22.650;2023-07-08T03:24:50;20.02;;;10.70;;
72125;SDS011;59999;51.676;22.650;2023-07-08T03:27:16;19.37;;;11.20;;
72125;SDS011;59999;51.676;22.650;2023-07-08T03:29:42;24.50;;;12.00;;
72125;SDS011;59999;51.676;22.650;2023-07-08T03:32:09;20.88;;;11.35;;
72125;SDS011;59999;51.676;22.650;2023-07-08T03:34:37;20.67;;;11.60;;
72125;SDS011;59999;51.676;22.650;2023-07-08T03:37:03;25.25;;;12.98;;
72125;SDS011;59999;51.676;22.650;2023-07-08T03:39:30;20.42;;;12.70;;
72125;SDS011;59999;51.676;22.650;2023-07-08T03:41:57;21.30;;;12.80;;
72125;SDS011;59999;51.676;22.650;2023-07-08T03:44:23;21.08;;;12.68;;
72125;SDS011;59999;51.676;22.650;2023-07-08T03:46:49;23.30;;;13.00;;
72125;SDS011;59999;51.676;22.650;2023-07-08T03:49:16;22.30;;;12.90;;
72125;SDS011;59999;51.676;22.650;2023-07-08T03:51:47;23.90;;;13.80;;
72125;SDS011;59999;51.676;22.650;2023-07-08T03:54:14;25.98;;;13.35;;
72125;SDS011;59999;51.676;22.650;2023-07-08T03:56:40;22.48;;;13.63;;
72125;SDS011;59999;51.676;22.650;2023-07-08T03:59:07;23.37;;;14.40;;
72125;SDS011;59999;51.676;22.650;2023-07-08T04:01:33;24.52;;;14.27;;
72125;SDS011;59999;51.676;22.650;2023-07-08T04:03:59;22.95;;;13.75;;
72125;SDS011;59999;51.676;22.650;2023-07-08T04:06:25;22.00;;;13.10;;
72125;SDS011;59999;51.676;22.650;2023-07-08T04:08:54;24.27;;;14.27;;
72125;SDS011;59999;51.676;22.650;2023-07-08T04:11:21;21.42;;;13.52;;
72125;SDS011;59999;51.676;22.650;2023-07-08T04:13:49;22.58;;;13.80;;
72125;SDS011;59999;51.676;22.650;2023-07-08T04:16:19;23.05;;;14.20;;
72125;SDS011;59999;51.676;22.650;2023-07-08T04:18:54;23.70;;;13.73;;
72125;SDS011;59999;51.676;22.650;2023-07-08T04:21:21;21.38;;;13.20;;
72125;SDS011;59999;51.676;22.650;2023-07-08T04:23:49;23.98;;;14.00;;
72125;SDS011;59999;51.676;22.650;2023-07-08T04:26:14;23.52;;;13.15;;
72125;SDS011;59999;51.676;22.650;2023-07-08T04:28:41;19.63;;;12.40;;
72125;SDS011;59999;51.676;22.650;2023-07-08T04:31:07;22.38;;;11.55;;
72125;SDS011;59999;51.676;22.650;2023-07-08T04:33:33;18.77;;;10.88;;
72125;SDS011;59999;51.676;22.650;2023-07-08T04:35:59;19.77;;;10.13;;
72125;SDS011;59999;51.676;22.650;2023-07-08T04:38:26;16.48;;;9.82;;
72125;SDS011;59999;51.676;22.650;2023-07-08T04:40:52;16.00;;;9.63;;
72125;SDS011;59999;51.676;22.650;2023-07-08T04:43:20;18.17;;;9.40;;
72125;SDS011;59999;51.676;22.650;2023-07-08T04:45:47;15.18;;;9.15;;
72125;SDS011;59999;51.676;22.650;2023-07-08T04:48:16;13.97;;;8.60;;
72125;SDS011;59999;51.676;22.650;2023-07-08T04:50:45;14.27;;;8.07;;
72125;SDS011;59999;51.676;22.650;2023-07-08T04:53:12;20.10;;;7.78;;
72125;SDS011;59999;51.676;22.650;2023-07-08T04:55:39;13.35;;;7.75;;
72125;SDS011;59999;51.676;22.650;2023-07-08T04:58:09;16.90;;;7.03;;
72125;SDS011;59999;51.676;22.650;2023-07-08T05:00:35;17.52;;;7.30;;
72125;SDS011;59999;51.676;22.650;2023-07-08T05:03:01;13.57;;;7.32;;
72125;SDS011;59999;51.676;22.650;2023-07-08T05:05:27;17.45;;;7.88;;
72125;SDS011;59999;51.676;22.650;2023-07-08T05:07:54;16.57;;;7.80;;
72125;SDS011;59999;51.676;22.650;2023-07-08T05:10:20;13.02;;;7.28;;
72125;SDS011;59999;51.676;22.650;2023-07-08T05:12:46;14.50;;;7.25;;
72125;SDS011;59999;51.676;22.650;2023-07-08T05:15:13;16.33;;;7.25;;
72125;SDS011;59999;51.676;22.650;2023-07-08T05:17:40;12.63;;;6.67;;
72125;SDS011;59999;51.676;22.650;2023-07-08T05:20:07;13.43;;;7.38;;
72125;SDS011;59999;51.676;22.650;2023-07-08T05:22:35;9.40;;;6.13;;
72125;SDS011;59999;51.676;22.650;2023-07-08T05:25:02;10.82;;;5.72;;
72125;SDS011;59999;51.676;22.650;2023-07-08T05:27:29;11.55;;;6.43;;
72125;SDS011;59999;51.676;22.650;2023-07-08T05:29:55;9.50;;;5.90;;
72125;SDS011;59999;51.676;22.650;2023-07-08T05:32:21;9.82;;;5.80;;
72125;SDS011;59999;51.676;22.650;2023-07-08T05:34:47;11.60;;;6.22;;
72125;SDS011;59999;51.676;22.650;2023-07-08T05:37:14;11.43;;;6.60;;
72125;SDS011;59999;51.676;22.650;2023-07-08T05:39:39;10.93;;;6.50;;
72125;SDS011;59999;51.676;22.650;2023-07-08T05:42:06;9.82;;;5.90;;
72125;SDS011;59999;51.676;22.650;2023-07-08T05:44:33;10.18;;;5.68;;
72125;SDS011;59999;51.676;22.650;2023-07-08T05:47:00;9.55;;;5.97;;
72125;SDS011;59999;51.676;22.650;2023-07-08T05:49:26;9.57;;;6.30;;
72125;SDS011;59999;51.676;22.650;2023-07-08T05:51:52;11.30;;;5.87;;
72125;SDS011;59999;51.676;22.650;2023-07-08T05:54:17;10.20;;;6.35;;
72125;SDS011;59999;51.676;22.650;2023-07-08T05:56:43;9.48;;;5.47;;
72125;SDS011;59999;51.676;22.650;2023-07-08T05:59:09;10.60;;;5.40;;
72125;SDS011;59999;51.676;22.650;2023-07-08T06:01:36;8.68;;;4.70;;
72125;SDS011;59999;51.676;22.650;2023-07-08T06:04:02;8.73;;;4.07;;
72125;SDS011;59999;51.676;22.650;2023-07-08T06:06:29;9.63;;;4.30;;
72125;SDS011;59999;51.676;22.650;2023-07-08T06:08:55;9.98;;;4.82;;
72125;SDS011;59999;51.676;22.650;2023-07-08T06:11:21;7.30;;;4.70;;
72125;SDS011;59999;51.676;22.650;2023-07-08T06:13:50;8.45;;;4.35;;
72125;SDS011;59999;51.676;22.650;2023-07-08T06:16:16;7.18;;;4.35;;
72125;SDS011;59999;51.676;22.650;2023-07-08T06:18:41;6.83;;;3.93;;
72125;SDS011;59999;51.676;22.650;2023-07-08T06:21:07;9.65;;;4.43;;
72125;SDS011;59999;51.676;22.650;2023-07-08T06:23:33;8.03;;;4.40;;
72125;SDS011;59999;51.676;22.650;2023-07-08T06:25:59;7.80;;;4.10;;
72125;SDS011;59999;51.676;22.650;2023-07-08T06:28:25;8.73;;;4.28;;
72125;SDS011;59999;51.676;22.650;2023-07-08T06:30:51;8.38;;;4.35;;
72125;SDS011;59999;51.676;22.650;2023-07-08T06:33:17;9.00;;;4.40;;
72125;SDS011;59999;51.676;22.650;2023-07-08T06:35:43;10.50;;;4.55;;
72125;SDS011;59999;51.676;22.650;2023-07-08T06:38:09;10.45;;;4.30;;
72125;SDS011;59999;51.676;22.650;2023-07-08T06:40:36;9.40;;;4.53;;
72125;SDS011;59999;51.676;22.650;2023-07-08T06:43:02;6.53;;;3.90;;
72125;SDS011;59999;51.676;22.650;2023-07-08T06:45:29;8.07;;;3.78;;
72125;SDS011;59999;51.676;22.650;2023-07-08T06:47:55;7.35;;;4.03;;
72125;SDS011;59999;51.676;22.650;2023-07-08T06:50:21;6.77;;;3.83;;
72125;SDS011;59999;51.676;22.650;2023-07-08T06:52:46;7.70;;;3.60;;
72125;SDS011;59999;51.676;22.650;2023-07-08T06:55:13;6.20;;;3.33;;
72125;SDS011;59999;51.676;22.650;2023-07-08T06:57:39;6.60;;;3.45;;
72125;SDS011;59999;51.676;22.650;2023-07-08T07:00:06;7.00;;;2.50;;
72125;SDS011;59999;51.676;22.650;2023-07-08T07:02:33;6.57;;;3.13;;
72125;SDS011;59999;51.676;22.650;2023-07-08T07:05:00;5.22;;;2.88;;
72125;SDS011;59999;51.676;22.650;2023-07-08T07:07:27;7.03;;;3.10;;
72125;SDS011;59999;51.676;22.650;2023-07-08T07:09:53;9.38;;;3.13;;
72125;SDS011;59999;51.676;22.650;2023-07-08T07:12:20;8.83;;;3.33;;
72125;SDS011;59999;51.676;22.650;2023-07-08T07:14:46;6.57;;;3.25;;
72125;SDS011;59999;51.676;22.650;2023-07-08T07:17:12;8.00;;;3.00;;
72125;SDS011;59999;51.676;22.650;2023-07-08T07:19:38;7.57;;;3.17;;
72125;SDS011;59999;51.676;22.650;2023-07-08T07:22:04;7.82;;;3.58;;
72125;SDS011;59999;51.676;22.650;2023-07-08T07:24:30;5.90;;;3.30;;
72125;SDS011;59999;51.676;22.650;2023-07-08T07:26:56;7.80;;;3.47;;
72125;SDS011;59999;51.676;22.650;2023-07-08T07:29:22;8.30;;;3.65;;
72125;SDS011;59999;51.676;22.650;2023-07-08T07:31:49;6.82;;;3.20;;
72125;SDS011;59999;51.676;22.650;2023-07-08T07:34:17;8.07;;;3.60;;
72125;SDS011;59999;51.676;22.650;2023-07-08T07:36:43;6.05;;;3.05;;
72125;SDS011;59999;51.676;22.650;2023-07-08T07:39:08;7.20;;;3.20;;
72125;SDS011;59999;51.676;22.650;2023-07-08T07:41:35;7.80;;;2.80;;
72125;SDS011;59999;51.676;22.650;2023-07-08T07:44:00;6.47;;;3.10;;
72125;SDS011;59999;51.676;22.650;2023-07-08T07:46:26;5.93;;;2.97;;
72125;SDS011;59999;51.676;22.650;2023-07-08T07:48:52;9.37;;;3.23;;
72125;SDS011;59999;51.676;22.650;2023-07-08T07:51:19;6.15;;;2.78;;
72125;SDS011;59999;51.676;22.650;2023-07-08T07:53:45;6.00;;;2.88;;
72125;SDS011;59999;51.676;22.650;2023-07-08T07:56:11;6.50;;;2.97;;
72125;SDS011;59999;51.676;22.650;2023-07-08T07:58:37;7.70;;;2.93;;
72125;SDS011;59999;51.676;22.650;2023-07-08T08:01:03;6.70;;;2.90;;
72125;SDS011;59999;51.676;22.650;2023-07-08T08:03:29;5.93;;;3.15;;
72125;SDS011;59999;51.676;22.650;2023-07-08T08:05:55;5.32;;;2.97;;
72125;SDS011;59999;51.676;22.650;2023-07-08T08:08:21;5.50;;;3.00;;
72125;SDS011;59999;51.676;22.650;2023-07-08T08:10:48;6.80;;;3.22;;
72125;SDS011;59999;51.676;22.650;2023-07-08T08:13:14;9.18;;;3.55;;
72125;SDS011;59999;51.676;22.650;2023-07-08T08:15:40;6.10;;;2.90;;
72125;SDS011;59999;51.676;22.650;2023-07-08T08:18:06;6.17;;;3.10;;
72125;SDS011;59999;51.676;22.650;2023-07-08T08:20:32;7.60;;;3.50;;
72125;SDS011;59999;51.676;22.650;2023-07-08T08:22:58;7.80;;;3.47;;
72125;SDS011;59999;51.676;22.650;2023-07-08T08:25:24;11.27;;;3.50;;
72125;SDS011;59999;51.676;22.650;2023-07-08T08:27:50;6.60;;;3.28;;
72125;SDS011;59999;51.676;22.650;2023-07-08T08:30:18;7.15;;;3.40;;
72125;SDS011;59999;51.676;22.650;2023-07-08T08:32:44;7.50;;;3.33;;
72125;SDS011;59999;51.676;22.650;2023-07-08T08:35:10;5.07;;;2.75;;
72125;SDS011;59999;51.676;22.650;2023-07-08T08:37:36;6.63;;;3.30;;
72125;SDS011;59999;51.676;22.650;2023-07-08T08:40:02;5.60;;;3.13;;
72125;SDS011;59999;51.676;22.650;2023-07-08T08:45:05;4.72;;;2.65;;
72125;SDS011;59999;51.676;22.650;2023-07-08T08:47:37;6.50;;;2.90;;
72125;SDS011;59999;51.676;22.650;2023-07-08T08:52:50;6.18;;;3.00;;
72125;SDS011;59999;51.676;22.650;2023-07-08T08:55:17;6.20;;;3.15;;
72125;SDS011;59999;51.676;22.650;2023-07-08T08:57:54;5.95;;;3.40;;
72125;SDS011;59999;51.676;22.650;2023-07-08T09:00:24;5.80;;;3.40;;
72125;SDS011;59999;51.676;22.650;2023-07-08T09:03:00;7.25;;;3.67;;
72125;SDS011;59999;51.676;22.650;2023-07-08T09:05:31;5.93;;;3.42;;
72125;SDS011;59999;51.676;22.650;2023-07-08T09:11:26;5.95;;;3.20;;
72125;SDS011;59999;51.676;22.650;2023-07-08T09:14:14;5.80;;;3.00;;
72125;SDS011;59999;51.676;22.650;2023-07-08T09:16:45;6.07;;;3.03;;
72125;SDS011;59999;51.676;22.650;2023-07-08T09:19:35;6.72;;;2.97;;
72125;SDS011;59999;51.676;22.650;2023-07-08T09:25:20;6.68;;;3.08;;
72125;SDS011;59999;51.676;22.650;2023-07-08T09:27:41;6.15;;;3.25;;
72125;SDS011;59999;51.676;22.650;2023-07-08T09:30:18;7.22;;;3.30;;
72125;SDS011;59999;51.676;22.650;2023-07-08T09:32:48;8.75;;;3.72;;
72125;SDS011;59999;51.676;22.650;2023-07-08T09:35:20;7.27;;;3.60;;
72125;SDS011;59999;51.676;22.650;2023-07-08T09:37:49;7.10;;;3.10;;
72125;SDS011;59999;51.676;22.650;2023-07-08T09:40:19;7.05;;;4.00;;
72125;SDS011;59999;51.676;22.650;2023-07-08T09:42:51;6.20;;;3.42;;
72125;SDS011;59999;51.676;22.650;2023-07-08T09:45:22;5.97;;;3.33;;
72125;SDS011;59999;51.676;22.650;2023-07-08T09:47:52;5.30;;;3.20;;
72125;SDS011;59999;51.676;22.650;2023-07-08T09:50:22;6.47;;;3.10;;
72125;SDS011;59999;51.676;22.650;2023-07-08T09:52:52;7.03;;;3.20;;
72125;SDS011;59999;51.676;22.650;2023-07-08T09:55:20;7.45;;;3.55;;
72125;SDS011;59999;51.676;22.650;2023-07-08T09:57:47;6.57;;;3.17;;
72125;SDS011;59999;51.676;22.650;2023-07-08T10:00:15;6.40;;;2.97;;
72125;SDS011;59999;51.676;22.650;2023-07-08T10:02:49;6.00;;;3.50;;
72125;SDS011;59999;51.676;22.650;2023-07-08T10:05:33;5.68;;;3.00;;
72125;SDS011;59999;51.676;22.650;2023-07-08T10:08:02;6.70;;;3.05;;
72125;SDS011;59999;51.676;22.650;2023-07-08T10:10:38;5.55;;;2.85;;
72125;SDS011;59999;51.676;22.650;2023-07-08T10:18:41;6.32;;;3.50;;
72125;SDS011;59999;51.676;22.650;2023-07-08T10:35:35;5.88;;;3.13;;
72125;SDS011;59999;51.676;22.650;2023-07-08T10:40:44;6.13;;;3.17;;
72125;SDS011;59999;51.676;22.650;2023-07-08T11:05:46;5.82;;;3.25;;
72125;SDS011;59999;51.676;22.650;2023-07-08T11:13:40;4.80;;;2.80;;
72125;SDS011;59999;51.676;22.650;2023-07-08T11:16:32;5.25;;;3.05;;
72125;SDS011;59999;51.676;22.650;2023-07-08T11:19:04;6.28;;;3.30;;
72125;SDS011;59999;51.676;22.650;2023-07-08T11:21:52;5.53;;;3.10;;
72125;SDS011;59999;51.676;22.650;2023-07-08T11:24:26;6.00;;;3.10;;
72125;SDS011;59999;51.676;22.650;2023-07-08T11:29:37;7.43;;;3.33;;
72125;SDS011;59999;51.676;22.650;2023-07-08T11:32:09;6.18;;;3.10;;
72125;SDS011;59999;51.676;22.650;2023-07-08T11:34:41;6.57;;;3.23;;
72125;SDS011;59999;51.676;22.650;2023-07-08T11:37:10;5.82;;;3.28;;
72125;SDS011;59999;51.676;22.650;2023-07-08T11:39:40;5.40;;;3.17;;
72125;SDS011;59999;51.676;22.650;2023-07-08T11:42:18;6.45;;;3.35;;
72125;SDS011;59999;51.676;22.650;2023-07-08T11:47:49;6.60;;;3.30;;
72125;SDS011;59999;51.676;22.650;2023-07-08T11:50:28;6.30;;;3.10;;
72125;SDS011;59999;51.676;22.650;2023-07-08T11:53:01;5.18;;;2.95;;
72125;SDS011;59999;51.676;22.650;2023-07-08T11:55:46;6.00;;;3.17;;
72125;SDS011;59999;51.676;22.650;2023-07-08T11:58:26;6.25;;;3.05;;
72125;SDS011;59999;51.676;22.650;2023-07-08T12:00:59;5.67;;;2.97;;
72125;SDS011;59999;51.676;22.650;2023-07-08T12:03:37;5.63;;;3.00;;
72125;SDS011;59999;51.676;22.650;2023-07-08T12:09:14;6.05;;;3.00;;
72125;SDS011;59999;51.676;22.650;2023-07-08T12:11:42;6.05;;;3.10;;
72125;SDS011;59999;51.676;22.650;2023-07-08T12:14:10;5.30;;;2.80;;
72125;SDS011;59999;51.676;22.650;2023-07-08T12:16:38;7.15;;;2.95;;
72125;SDS011;59999;51.676;22.650;2023-07-08T12:19:04;5.32;;;3.05;;
72125;SDS011;59999;51.676;22.650;2023-07-08T12:21:34;4.95;;;3.00;;
72125;SDS011;59999;51.676;22.650;2023-07-08T12:24:04;5.10;;;2.87;;
72125;SDS011;59999;51.676;22.650;2023-07-08T12:26:32;7.68;;;3.17;;
72125;SDS011;59999;51.676;22.650;2023-07-08T12:28:59;5.43;;;3.00;;
72125;SDS011;59999;51.676;22.650;2023-07-08T12:31:25;5.22;;;2.60;;
72125;SDS011;59999;51.676;22.650;2023-07-08T12:33:51;6.10;;;3.10;;
72125;SDS011;59999;51.676;22.650;2023-07-08T12:36:19;6.70;;;3.43;;
72125;SDS011;59999;51.676;22.650;2023-07-08T12:38:48;5.07;;;3.05;;
72125;SDS011;59999;51.676;22.650;2023-07-08T12:41:17;10.50;;;3.08;;
72125;SDS011;59999;51.676;22.650;2023-07-08T12:43:47;5.47;;;2.58;;
72125;SDS011;59999;51.676;22.650;2023-07-08T12:46:14;6.22;;;3.20;;
72125;SDS011;59999;51.676;22.650;2023-07-08T12:48:42;7.73;;;3.10;;
72125;SDS011;59999;51.676;22.650;2023-07-08T12:51:12;6.43;;;3.17;;
72125;SDS011;59999;51.676;22.650;2023-07-08T12:53:43;7.28;;;3.30;;
72125;SDS011;59999;51.676;22.650;2023-07-08T12:56:10;5.28;;;3.05;;
72125;SDS011;59999;51.676;22.650;2023-07-08T12:58:45;6.25;;;3.15;;
72125;SDS011;59999;51.676;22.650;2023-07-08T13:01:25;5.63;;;3.27;;
72125;SDS011;59999;51.676;22.650;2023-07-08T13:04:01;4.78;;;2.75;;
72125;SDS011;59999;51.676;22.650;2023-07-08T13:06:30;6.43;;;2.75;;
72125;SDS011;59999;51.676;22.650;2023-07-08T13:09:05;5.15;;;3.10;;
72125;SDS011;59999;51.676;22.650;2023-07-08T13:11:34;6.25;;;3.03;;
72125;SDS011;59999;51.676;22.650;2023-07-08T13:14:03;5.77;;;3.10;;
72125;SDS011;59999;51.676;22.650;2023-07-08T13:16:32;11.23;;;4.45;;
72125;SDS011;59999;51.676;22.650;2023-07-08T13:19:00;16.77;;;8.45;;
72125;SDS011;59999;51.676;22.650;2023-07-08T13:21:27;5.80;;;3.13;;
72125;SDS011;59999;51.676;22.650;2023-07-08T13:23:56;6.13;;;3.10;;
72125;SDS011;59999;51.676;22.650;2023-07-08T13:26:24;4.83;;;2.80;;
72125;SDS011;59999;51.676;22.650;2023-07-08T13:29:00;6.28;;;3.22;;
72125;SDS011;59999;51.676;22.650;2023-07-08T13:31:32;5.97;;;2.88;;
72125;SDS011;59999;51.676;22.650;2023-07-08T13:34:05;5.18;;;2.92;;
72125;SDS011;59999;51.676;22.650;2023-07-08T13:36:37;5.13;;;2.88;;
72125;SDS011;59999;51.676;22.650;2023-07-08T13:39:08;5.07;;;2.83;;
72125;SDS011;59999;51.676;22.650;2023-07-08T13:41:43;5.35;;;2.90;;
72125;SDS011;59999;51.676;22.650;2023-07-08T13:44:10;4.97;;;2.70;;
72125;SDS011;59999;51.676;22.650;2023-07-08T13:46:38;5.30;;;2.95;;
72125;SDS011;59999;51.676;22.650;2023-07-08T13:54:48;5.22;;;3.10;;
72125;SDS011;59999;51.676;22.650;2023-07-08T13:57:30;5.45;;;3.13;;
72125;SDS011;59999;51.676;22.650;2023-07-08T13:59:58;6.07;;;2.97;;
72125;SDS011;59999;51.676;22.650;2023-07-08T14:02:28;5.75;;;3.15;;
72125;SDS011;59999;51.676;22.650;2023-07-08T14:04:56;5.13;;;3.33;;
72125;SDS011;59999;51.676;22.650;2023-07-08T14:07:25;6.82;;;3.45;;
72125;SDS011;59999;51.676;22.650;2023-07-08T14:09:53;5.68;;;3.05;;
72125;SDS011;59999;51.676;22.650;2023-07-08T14:12:20;5.68;;;3.03;;
72125;SDS011;59999;51.676;22.650;2023-07-08T14:14:46;5.50;;;3.35;;
72125;SDS011;59999;51.676;22.650;2023-07-08T14:17:15;5.90;;;3.17;;
72125;SDS011;59999;51.676;22.650;2023-07-08T14:19:46;5.88;;;3.30;;
72125;SDS011;59999;51.676;22.650;2023-07-08T14:24:39;5.88;;;3.45;;
72125;SDS011;59999;51.676;22.650;2023-07-08T14:27:08;6.20;;;3.20;;
72125;SDS011;59999;51.676;22.650;2023-07-08T14:33:16;7.05;;;3.30;;
72125;SDS011;59999;51.676;22.650;2023-07-08T14:35:42;6.25;;;3.35;;
72125;SDS011;59999;51.676;22.650;2023-07-08T14:38:09;6.22;;;3.45;;
72125;SDS011;59999;51.676;22.650;2023-07-08T14:40:37;5.60;;;3.20;;
72125;SDS011;59999;51.676;22.650;2023-07-08T14:45:41;6.25;;;3.30;;
72125;SDS011;59999;51.676;22.650;2023-07-08T14:48:12;5.40;;;3.20;;
72125;SDS011;59999;51.676;22.650;2023-07-08T14:50:38;6.07;;;3.58;;
72125;SDS011;59999;51.676;22.650;2023-07-08T14:53:04;5.03;;;2.87;;
72125;SDS011;59999;51.676;22.650;2023-07-08T14:55:31;6.38;;;3.45;;
72125;SDS011;59999;51.676;22.650;2023-07-08T14:57:57;7.22;;;4.20;;
72125;SDS011;59999;51.676;22.650;2023-07-08T15:00:23;5.95;;;3.42;;
72125;SDS011;59999;51.676;22.650;2023-07-08T15:02:50;6.50;;;3.40;;
72125;SDS011;59999;51.676;22.650;2023-07-08T15:05:26;5.93;;;3.43;;
72125;SDS011;59999;51.676;22.650;2023-07-08T15:07:54;6.15;;;3.30;;
72125;SDS011;59999;51.676;22.650;2023-07-08T15:10:25;6.18;;;3.53;;
72125;SDS011;59999;51.676;22.650;2023-07-08T15:12:54;6.75;;;3.53;;
72125;SDS011;59999;51.676;22.650;2023-07-08T15:15:23;5.82;;;3.60;;
72125;SDS011;59999;51.676;22.650;2023-07-08T15:17:52;6.13;;;3.63;;
72125;SDS011;59999;51.676;22.650;2023-07-08T15:20:18;6.10;;;3.55;;
72125;SDS011;59999;51.676;22.650;2023-07-08T15:22:45;5.45;;;3.50;;
72125;SDS011;59999;51.676;22.650;2023-07-08T15:25:12;8.23;;;4.00;;
72125;SDS011;59999;51.676;22.650;2023-07-08T15:27:43;7.10;;;3.83;;
72125;SDS011;59999;51.676;22.650;2023-07-08T15:30:15;6.85;;;3.70;;
72125;SDS011;59999;51.676;22.650;2023-07-08T15:32:49;6.40;;;3.78;;
72125;SDS011;59999;51.676;22.650;2023-07-08T15:35:17;8.10;;;3.70;;
72125;SDS011;59999;51.676;22.650;2023-07-08T15:37:44;9.97;;;3.90;;
72125;SDS011;59999;51.676;22.650;2023-07-08T15:40:15;6.05;;;3.90;;
72125;SDS011;59999;51.676;22.650;2023-07-08T15:42:47;6.85;;;3.95;;
72125;SDS011;59999;51.676;22.650;2023-07-08T15:45:22;5.78;;;3.95;;
72125;SDS011;59999;51.676;22.650;2023-07-08T15:47:50;12.48;;;3.88;;
72125;SDS011;59999;51.676;22.650;2023-07-08T15:50:18;5.87;;;4.03;;
72125;SDS011;59999;51.676;22.650;2023-07-08T15:52:46;6.00;;;3.70;;
72125;SDS011;59999;51.676;22.650;2023-07-08T15:55:12;6.90;;;4.30;;
72125;SDS011;59999;51.676;22.650;2023-07-08T15:57:46;6.50;;;4.18;;
72125;SDS011;59999;51.676;22.650;2023-07-08T16:00:15;5.63;;;4.07;;
72125;SDS011;59999;51.676;22.650;2023-07-08T16:02:50;6.45;;;3.97;;
72125;SDS011;59999;51.676;22.650;2023-07-08T16:05:18;7.63;;;4.60;;
72125;SDS011;59999;51.676;22.650;2023-07-08T16:07:49;8.00;;;4.55;;
72125;SDS011;59999;51.676;22.650;2023-07-08T16:10:16;5.80;;;3.95;;